Smithfield, Rhode Island
Current Conditions -  °F | °C
As of 3:15 AM on Monday 26 Jan 2015 (Local Time) from KSFZ Reporting Station
Broken Clouds Broken Clouds  
Wind Chill:   Ceiling: 11000
Heat Index: 18°   Visibility: 10mi
Dew Point:   Wind: 10mph
Humidity: 45%   Direction: 20°NNE
Pressure: 30.04"   Gusts: NA
Location:  41.92°N, 71.55°W
Report Text: KSFZ 260815Z 02009KT 10SM BKN110 M08/M18 A3004 RMK AO1
Loading
Personal Weather Stations






























Interactive Weather Map New forecast layout! Learn more

10-Day Weather Forecast

Advertisements
Track Severe Weather on mobile